Time;durP1;ratioP1;P1;durP2;ratioP2;P2;SDS_P1;SDS_P2;PMS_P1;PMS_P2;Temp;Humidity;BMP_temperature;BMP_pressure;BME280_temperature;BME280_humidity;BME280_pressure;Samples;Min_cycle;Max_cycle;Signal;HPM_P1;HPM_P2
2022/05/07 00:01:43;;;;;;;25.50;13.60;;;;;;;8.48;60.29;99668.34;107151;1259;22521;-88
2022/05/07 00:04:36;;;;;;;25.50;14.30;;;;;;;8.53;60.09;99667.88;107152;1258;22802;-85
2022/05/07 00:07:07;;;;;;;56.70;21.50;;;;;;;8.56;60.38;99664.88;107153;1259;22547;-85
2022/05/07 00:09:59;;;;;;;52.00;20.80;;;;;;;8.47;60.31;99661.81;107167;1260;22741;-86
2022/05/07 00:12:28;;;;;;;45.90;18.40;;;;;;;8.38;60.37;99663.52;107277;1255;25347;-83
2022/05/07 00:15:09;;;;;;;30.90;14.70;;;;;;;8.33;60.52;99661.45;107513;1253;22561;-86
2022/05/07 00:20:35;;;;;;;20.00;10.90;;;;;;;8.28;60.72;99664.94;107912;1253;25468;-88
2022/05/07 00:23:02;;;;;;;29.70;13.70;;;;;;;8.25;60.81;99666.13;108038;1252;22881;-86
2022/05/07 00:26:10;;;;;;;20.60;10.40;;;;;;;8.19;60.71;99666.45;107860;1254;25586;-86
2022/05/07 00:28:39;;;;;;;22.00;11.00;;;;;;;8.10;60.89;99663.70;108152;1252;24298;-86
2022/05/07 00:31:08;;;;;;;20.10;10.10;;;;;;;8.05;60.93;99664.55;107759;1253;22541;-86
2022/05/07 00:33:35;;;;;;;21.70;10.80;;;;;;;8.00;61.10;99665.52;107716;1252;22560;-87
2022/05/07 00:36:38;;;;;;;;;;;;;;;;;;;;;
2022/05/07 00:39:07;;;;;;;22.90;12.50;;;;;;;7.93;61.19;99665.19;108104;1252;22854;-84
2022/05/07 00:41:51;;;;;;;;;;;;;;;;;;;;;
2022/05/07 00:44:21;;;;;;;32.00;14.00;;;;;;;7.96;61.15;99665.71;107820;1252;22537;-87
2022/05/07 00:46:49;;;;;;;28.70;14.20;;;;;;;7.93;61.18;99664.48;107954;1252;22717;-85
2022/05/07 00:49:19;;;;;;;25.50;14.30;;;;;;;7.83;61.43;99662.49;107959;1252;22547;-86
2022/05/07 00:51:46;;;;;;;30.50;14.30;;;;;;;7.79;61.32;99659.70;107536;1252;22963;-85
2022/05/07 00:54:13;;;;;;;26.30;13.40;;;;;;;7.76;61.21;99659.28;108082;1252;22593;-85
2022/05/07 00:56:40;;;;;;;25.90;14.10;;;;;;;7.74;61.16;99662.95;107940;1253;24278;-86
2022/05/07 00:59:07;;;;;;;27.30;13.80;;;;;;;7.75;61.23;99664.67;107779;1254;22521;-88
2022/05/07 01:01:49;;;;;;;24.90;14.00;;;;;;;7.74;61.30;99659.02;107503;1252;22556;-85
2022/05/07 01:04:17;;;;;;;29.40;13.50;;;;;;;7.75;61.44;99657.23;108086;1252;25342;-86
2022/05/07 01:07:05;;;;;;;30.60;15.60;;;;;;;7.76;61.87;99651.48;108067;1250;22635;-86
2022/05/07 01:09:37;;;;;;;31.90;16.10;;;;;;;7.84;61.90;99650.22;107755;1254;25295;-85
2022/05/07 01:12:16;;;;;;;37.60;16.40;;;;;;;7.85;61.77;99647.98;108084;1252;25209;-85
2022/05/07 01:15:24;;;;;;;32.50;15.30;;;;;;;7.78;61.62;99642.86;107803;1254;25213;-89
2022/05/07 01:18:21;;;;;;;32.00;16.30;;;;;;;7.68;62.03;99641.82;107895;1254;24726;-89
2022/05/07 01:20:55;;;;;;;32.00;15.10;;;;;;;7.63;61.77;99640.81;107894;1252;25224;-85
2022/05/07 01:23:43;;;;;;;28.10;14.10;;;;;;;7.63;61.63;99636.94;107788;1252;24349;-87
2022/05/07 01:26:24;;;;;;;;;;;;;;;;;;;;;
2022/05/07 01:29:14;;;;;;;27.20;13.40;;;;;;;7.68;61.85;99636.69;107902;1253;26469;-86
2022/05/07 01:32:27;;;;;;;26.70;14.60;;;;;;;7.71;61.99;99632.65;107931;1254;22681;-84
2022/05/07 01:35:07;;;;;;;33.40;19.20;;;;;;;7.70;62.19;99633.92;108065;1252;22520;-86
2022/05/07 01:37:40;;;;;;;31.10;17.60;;;;;;;7.66;62.53;99638.54;107936;1252;22891;-88
2022/05/07 01:40:11;;;;;;;27.10;13.70;;;;;;;7.59;62.32;99639.05;107750;1252;22542;-87
2022/05/07 01:43:28;;;;;;;;;;;;;;;;;;;;;
2022/05/07 01:49:05;;;;;;;25.40;14.60;;;;;;;7.46;62.51;99637.61;108020;1254;25284;-86
2022/05/07 01:51:33;;;;;;;24.50;13.60;;;;;;;7.49;62.66;99639.95;107953;1254;22942;-86
2022/05/07 01:54:23;;;;;;;27.60;14.20;;;;;;;7.52;62.35;99640.64;107770;1254;25609;-89
2022/05/07 01:56:55;;;;;;;23.80;13.60;;;;;;;7.56;62.52;99636.73;108055;1252;25216;-86
2022/05/07 01:59:25;;;;;;;22.30;12.00;;;;;;;7.60;62.62;99635.11;107870;1254;22540;-86
2022/05/07 02:02:02;;;;;;;23.00;11.90;;;;;;;7.66;62.55;99634.29;108056;1253;22521;-86
2022/05/07 02:04:34;;;;;;;22.40;12.90;;;;;;;7.72;62.53;99637.15;107867;1254;22512;-88
2022/05/07 02:07:11;;;;;;;23.80;14.30;;;;;;;7.74;62.48;99637.06;107958;1254;25315;-86
2022/05/07 02:09:38;;;;;;;25.90;14.50;;;;;;;7.70;62.52;99635.52;107949;1252;22544;-87
2022/05/07 02:12:07;;;;;;;29.00;14.00;;;;;;;7.66;62.37;99639.80;107518;1252;22533;-85
2022/05/07 02:15:05;;;;;;;27.90;13.90;;;;;;;7.58;62.40;99634.86;108037;1253;22525;-86
2022/05/07 02:17:43;;;;;;;26.80;14.40;;;;;;;7.49;62.26;99634.59;107833;1254;25346;-86
2022/05/07 02:20:12;;;;;;;21.90;12.60;;;;;;;7.50;62.55;99635.98;108064;1252;22515;-85
2022/05/07 02:23:04;;;;;;;27.90;12.80;;;;;;;7.52;62.58;99631.66;107791;1254;22607;-86
2022/05/07 02:26:13;;;;;;;27.30;12.80;;;;;;;7.53;62.68;99632.67;108018;1252;22822;-89
2022/05/07 02:28:50;;;;;;;27.10;12.50;;;;;;;7.59;62.82;99635.17;108056;1254;22569;-85
2022/05/07 02:31:51;;;;;;;;;;;;;;;;;;;;;
2022/05/07 02:34:47;;;;;;;22.90;12.60;;;;;;;7.59;62.93;99633.78;108023;1254;22546;-86
2022/05/07 02:37:30;;;;;;;25.90;14.00;;;;;;;7.50;62.85;99631.76;107994;1254;25187;-86
2022/05/07 02:40:00;;;;;;;26.60;13.20;;;;;;;7.47;63.00;99631.73;108023;1252;22632;-89
2022/05/07 02:42:36;;;;;;;25.70;12.80;;;;;;;7.47;63.07;99628.73;107978;1254;25392;-86
2022/05/07 02:45:22;;;;;;;22.80;12.00;;;;;;;7.45;63.05;99626.67;107957;1254;23000;-87
2022/05/07 02:48:25;;;;;;;;;;;;;;;;;;;;;
2022/05/07 02:50:59;;;;;;;23.20;12.00;;;;;;;7.36;63.31;99624.67;107764;1254;23898;-85
2022/05/07 02:53:28;;;;;;;24.00;12.60;;;;;;;7.37;63.49;99626.57;107917;1254;22563;-85
2022/05/07 02:56:11;;;;;;;;;;;;;;;;;;;;;
2022/05/07 02:58:57;;;;;;;23.90;12.80;;;;;;;7.42;63.53;99627.71;107928;1252;22531;-85
2022/05/07 03:02:00;;;;;;;23.80;13.10;;;;;;;7.43;63.52;99625.38;108127;1254;25226;-87
2022/05/07 03:04:47;;;;;;;;;;;;;;;;;;;;;
2022/05/07 03:07:44;;;;;;;22.80;12.60;;;;;;;7.40;63.24;99629.95;107854;1254;23935;-85
2022/05/07 03:10:40;;;;;;;;;;;;;;;;;;;;;
2022/05/07 03:14:40;;;;;;;20.90;11.30;;;;;;;7.50;63.61;99635.81;107917;1253;22542;-86
2022/05/07 03:17:27;;;;;;;21.30;11.90;;;;;;;7.52;63.54;99635.71;106903;1265;24213;-87
2022/05/07 03:20:40;;;;;;;24.70;12.70;;;;;;;7.50;63.72;99638.13;106633;1265;24234;-85
2022/05/07 03:23:19;;;;;;;;;;;;;;;;;;;;;
2022/05/07 03:26:06;;;;;;;29.90;13.50;;;;;;;7.57;63.57;99637.91;106573;1265;25356;-85
2022/05/07 03:28:59;;;;;;;;;;;;;;;;;;;;;
2022/05/07 03:32:22;;;;;;;;;;;;;;;;;;;;;
2022/05/07 03:36:35;;;;;;;23.00;12.10;;;;;;;7.93;64.36;99638.21;106698;1266;24643;-84
2022/05/07 03:39:58;;;;;;;;;;;;;;;;;;;;;
2022/05/07 03:42:48;;;;;;;;;;;;;;;;;;;;;
2022/05/07 03:46:09;;;;;;;22.70;12.20;;;;;;;8.40;63.94;99637.88;105936;1274;25456;-85
2022/05/07 03:48:40;;;;;;;30.80;13.40;;;;;;;8.47;63.93;99640.34;105877;1274;24214;-83
2022/05/07 03:51:17;;;;;;;22.70;12.20;;;;;;;8.58;64.17;99642.25;106096;1271;26839;-84
2022/05/07 03:53:48;;;;;;;24.60;11.00;;;;;;;8.71;64.15;99645.23;106266;1268;25225;-85
2022/05/07 03:56:27;;;;;;;20.20;10.90;;;;;;;8.83;64.19;99642.07;106374;1268;22579;-85
2022/05/07 03:58:54;;;;;;;22.40;11.90;;;;;;;8.96;63.97;99641.34;106494;1268;24453;-85
2022/05/07 04:01:34;;;;;;;26.60;12.30;;;;;;;9.00;63.80;99642.94;106380;1268;24274;-84
2022/05/07 04:04:01;;;;;;;23.20;12.60;;;;;;;9.04;63.78;99642.14;106442;1268;22550;-84
2022/05/07 04:06:48;;;;;;;26.40;12.60;;;;;;;9.10;63.83;99644.13;106412;1268;23239;-85
2022/05/07 04:09:16;;;;;;;24.80;13.30;;;;;;;9.13;63.83;99644.10;106408;1268;22660;-85
2022/05/07 04:12:03;;;;;;;25.40;13.70;;;;;;;9.20;63.92;99643.17;106324;1268;25787;-85
2022/05/07 04:14:30;;;;;;;28.70;13.00;;;;;;;9.29;64.16;99647.11;106811;1263;22597;-85
2022/05/07 04:17:02;;;;;;;23.30;13.10;;;;;;;9.29;63.80;99649.44;106685;1263;25369;-85
2022/05/07 04:19:30;;;;;;;34.50;13.80;;;;;;;9.32;63.91;99652.30;107313;1254;25568;-85
2022/05/07 04:21:58;;;;;;;29.90;14.00;;;;;;;9.41;63.95;99651.38;107512;1254;23892;-84
2022/05/07 04:24:41;;;;;;;28.30;14.00;;;;;;;9.54;63.93;99649.42;107617;1254;22540;-84
2022/05/07 04:27:09;;;;;;;29.10;14.10;;;;;;;9.66;64.04;99646.60;107393;1254;25530;-84
2022/05/07 04:30:01;;;;;;;27.10;13.70;;;;;;;9.76;64.04;99648.99;107850;1254;22551;-85
2022/05/07 04:32:29;;;;;;;24.80;13.70;;;;;;;9.87;64.11;99647.24;107952;1253;22800;-85
2022/05/07 04:35:00;;;;;;;25.80;13.70;;;;;;;9.93;64.13;99645.27;107490;1254;24701;-85
2022/05/07 04:37:27;;;;;;;29.10;13.40;;;;;;;10.01;64.03;99647.83;107723;1254;25263;-85
2022/05/07 04:40:03;;;;;;;30.80;14.30;;;;;;;10.10;64.07;99644.65;107748;1252;25210;-86
2022/05/07 04:42:30;;;;;;;26.30;14.50;;;;;;;10.21;64.14;99647.20;107690;1254;22520;-85
2022/05/07 04:45:25;;;;;;;26.10;13.80;;;;;;;10.34;64.25;99647.11;108483;1254;26862;-85
2022/05/07 04:48:32;;;;;;;27.80;13.50;;;;;;;10.52;64.16;99649.70;108011;1254;23041;-86
2022/05/07 04:50:58;;;;;;;33.00;14.40;;;;;;;10.63;64.33;99651.02;107882;1252;26566;-86
2022/05/07 04:53:36;;;;;;;28.80;12.70;;;;;;;10.77;64.29;99650.27;107873;1254;22565;-86
2022/05/07 04:56:38;;;;;;;29.30;12.20;;;;;;;10.88;63.96;99649.25;107937;1254;22530;-84
2022/05/07 04:59:07;;;;;;;25.60;13.20;;;;;;;10.93;63.89;99644.29;107794;1254;25573;-84
2022/05/07 05:01:38;;;;;;;21.70;12.50;;;;;;;10.96;63.87;99647.61;107931;1254;25506;-88
2022/05/07 05:04:16;;;;;;;28.00;14.50;;;;;;;11.00;63.78;99644.87;107530;1252;22671;-87
2022/05/07 05:06:56;;;;;;;46.30;17.30;;;;;;;11.07;63.83;99646.92;108030;1252;24280;-85
2022/05/07 05:09:31;;;;;;;39.50;15.50;;;;;;;11.22;64.09;99649.39;108069;1252;25309;-85
2022/05/07 05:12:03;;;;;;;26.40;12.20;;;;;;;11.40;64.32;99652.09;107982;1252;25593;-87
2022/05/07 05:15:20;;;;;;;33.40;11.60;;;;;;;11.51;63.95;99655.62;107835;1252;25525;-86
2022/05/07 05:17:54;;;;;;;;;;;;;;;;;;;;;
2022/05/07 05:20:24;;;;;;;21.40;10.80;;;;;;;11.66;64.04;99654.48;107805;1257;24668;-89
2022/05/07 05:23:03;;;;;;;20.10;10.80;;;;;;;11.67;63.79;99656.70;108080;1252;25212;-86
2022/05/07 05:25:43;;;;;;;17.80;9.90;;;;;;;11.72;64.09;99659.26;107983;1254;23217;-85
2022/05/07 05:28:13;;;;;;;33.70;16.20;;;;;;;11.79;63.95;99665.87;107804;1252;22524;-86
2022/05/07 05:30:51;;;;;;;40.10;17.20;;;;;;;11.83;64.02;99664.89;107780;1253;22937;-86
2022/05/07 05:33:21;;;;;;;44.10;18.20;;;;;;;11.96;63.91;99670.66;107865;1253;22515;-89
2022/05/07 05:35:58;;;;;;;49.80;17.80;;;;;;;12.16;64.00;99668.02;108062;1252;22622;-85
2022/05/07 05:38:26;;;;;;;42.00;16.90;;;;;;;12.31;63.84;99669.98;107972;1254;22501;-87
2022/05/07 05:40:52;;;;;;;43.10;16.20;;;;;;;12.43;63.75;99666.33;107820;1254;22676;-85
2022/05/07 05:43:29;;;;;;;;;;;;;;;;;;;;;
2022/05/07 05:45:55;;;;;;;30.30;14.40;;;;;;;12.54;63.67;99670.36;107710;1254;25324;-84
2022/05/07 05:48:29;;;;;;;32.20;13.60;;;;;;;12.68;63.73;99669.36;107896;1254;25251;-85
2022/05/07 05:51:21;;;;;;;;;;;;;;;;;;;;;
2022/05/07 05:54:10;;;;;;;44.00;14.70;;;;;;;12.97;63.85;99684.66;107860;1254;25299;-85
2022/05/07 05:56:40;;;;;;;38.50;14.20;;;;;;;13.13;63.90;99682.77;107918;1254;24313;-88
2022/05/07 05:59:07;;;;;;;52.70;22.00;;;;;;;13.24;63.74;99681.28;107886;1254;22532;-86
2022/05/07 06:01:43;;;;;;;48.80;23.00;;;;;;;13.38;63.73;99682.79;107977;1252;25275;-85
2022/05/07 06:04:22;;;;;;;43.20;14.20;;;;;;;13.54;63.58;99686.97;107913;1253;25640;-85
2022/05/07 06:06:51;;;;;;;29.80;10.60;;;;;;;13.56;63.16;99691.40;107728;1252;22539;-87
2022/05/07 06:09:22;;;;;;;23.30;11.00;;;;;;;13.62;63.18;99690.44;107743;1254;24262;-85
2022/05/07 06:11:54;;;;;;;30.40;12.10;;;;;;;13.62;63.20;99687.95;107929;1252;22810;-89
2022/05/07 06:14:20;;;;;;;34.50;11.20;;;;;;;13.66;63.20;99687.78;107892;1252;25372;-85
2022/05/07 06:16:50;;;;;;;34.20;12.70;;;;;;;13.71;62.99;99688.88;107868;1254;22803;-88
2022/05/07 06:19:38;;;;;;;37.60;13.90;;;;;;;13.79;63.31;99688.48;107893;1254;25312;-85
2022/05/07 06:22:09;;;;;;;37.40;12.60;;;;;;;13.91;63.46;99687.91;107938;1254;22535;-88
2022/05/07 06:27:34;;;;;;;34.40;11.40;;;;;;;14.24;63.41;99688.77;107896;1253;25249;-85
2022/05/07 06:30:05;;;;;;;26.00;10.40;;;;;;;14.45;63.50;99685.91;107886;1252;24336;-87
2022/05/07 06:32:40;;;;;;;18.30;8.40;;;;;;;14.66;63.44;99684.96;107986;1254;22505;-88
2022/05/07 06:35:10;;;;;;;19.60;8.60;;;;;;;14.87;63.17;99679.69;107981;1252;24238;-88
2022/05/07 06:37:51;;;;;;;27.20;10.10;;;;;;;15.14;63.11;99679.89;107949;1254;25342;-85
2022/05/07 06:40:19;;;;;;;26.90;9.50;;;;;;;15.37;62.99;99679.63;107948;1252;25201;-86
2022/05/07 06:42:46;;;;;;;23.70;9.00;;;;;;;15.52;62.59;99683.75;107758;1254;24338;-88
2022/05/07 06:45:19;;;;;;;20.50;9.60;;;;;;;15.62;62.35;99682.79;107778;1252;22543;-87
2022/05/07 06:47:48;;;;;;;27.30;10.40;;;;;;;15.71;62.35;99685.21;107873;1252;22509;-87
2022/05/07 06:50:17;;;;;;;26.50;10.80;;;;;;;15.86;62.37;99684.35;107780;1255;26601;-86
2022/05/07 06:52:46;;;;;;;23.90;10.10;;;;;;;16.03;62.37;99687.55;107748;1255;22641;-85
2022/05/07 06:55:32;;;;;;;26.00;10.20;;;;;;;16.21;62.15;99686.23;107816;1256;22701;-86
2022/05/07 06:58:01;;;;;;;30.00;10.80;;;;;;;16.38;61.93;99693.02;107994;1254;24185;-84
2022/05/07 07:00:30;;;;;;;34.20;12.70;;;;;;;16.37;61.48;99692.71;107917;1252;25220;-85
2022/05/07 07:03:19;;;;;;;32.40;11.60;;;;;;;16.32;61.69;99690.69;107982;1252;25357;-88
2022/05/07 07:05:50;;;;;;;26.30;10.20;;;;;;;16.50;62.05;99693.59;108191;1252;22475;-86
2022/05/07 07:08:17;;;;;;;28.80;10.50;;;;;;;16.74;62.18;99694.94;107741;1252;23087;-89
2022/05/07 07:10:54;;;;;;;;;;;;;;;;;;;;;
2022/05/07 07:13:23;;;;;;;33.00;12.80;;;;;;;16.88;61.06;99698.56;107821;1255;24178;-85
2022/05/07 07:15:58;;;;;;;43.20;13.80;;;;;;;16.95;61.33;99703.02;108199;1252;25342;-86
2022/05/07 07:18:25;;;;;;;42.30;12.80;;;;;;;17.08;61.49;99701.67;107838;1254;25221;-87
2022/05/07 07:20:54;;;;;;;42.30;12.70;;;;;;;17.29;61.65;99701.61;107983;1252;24264;-86
2022/05/07 07:23:20;;;;;;;32.90;10.90;;;;;;;17.56;61.60;99695.70;107673;1255;22519;-88
2022/05/07 07:25:57;;;;;;;38.10;12.60;;;;;;;17.64;60.93;99696.50;107976;1255;24189;-88
2022/05/07 07:28:26;;;;;;;31.60;11.30;;;;;;;17.74;61.17;99697.11;108250;1252;22536;-86
2022/05/07 07:31:05;;;;;;;;;;;;;;;;;;;;;
2022/05/07 07:33:39;;;;;;;24.50;9.00;;;;;;;18.16;60.39;99693.88;108183;1252;26904;-86
2022/05/07 07:36:09;;;;;;;26.70;9.60;;;;;;;18.23;60.70;99693.86;107752;1255;25307;-86
2022/05/07 07:38:46;;;;;;;22.30;8.40;;;;;;;18.44;60.50;99694.59;107972;1255;24248;-87
2022/05/07 07:41:34;;;;;;;14.90;7.20;;;;;;;18.59;60.32;99690.38;107875;1253;22685;-85
2022/05/07 07:44:01;;;;;;;14.50;7.20;;;;;;;18.78;60.28;99690.33;108318;1254;23895;-86
2022/05/07 07:49:26;;;;;;;17.30;7.90;;;;;;;18.99;59.68;99689.50;108019;1253;24192;-89
2022/05/07 07:52:13;;;;;;;14.10;7.90;;;;;;;19.02;59.74;99689.41;107988;1252;24261;-86
2022/05/07 07:54:42;;;;;;;13.80;6.90;;;;;;;19.06;59.35;99690.98;108330;1252;24336;-86
2022/05/07 07:57:18;;;;;;;17.50;7.20;;;;;;;19.06;59.61;99690.59;107939;1255;22509;-88
2022/05/07 07:59:47;;;;;;;18.00;7.60;;;;;;;19.41;59.75;99686.63;107653;1255;24239;-85
2022/05/07 08:02:44;;;;;;;15.50;7.50;;;;;;;19.79;59.44;99687.23;108059;1253;25355;-85
2022/05/07 08:05:11;;;;;;;20.40;8.10;;;;;;;20.18;58.92;99686.67;108626;1252;24264;-85
2022/05/07 08:13:10;;;;;;;13.80;6.30;;;;;;;20.39;58.89;99689.45;108187;1252;22527;-85
2022/05/07 08:15:40;;;;;;;16.40;7.00;;;;;;;20.21;58.45;99688.84;107910;1254;22535;-86
2022/05/07 08:18:09;;;;;;;15.00;6.30;;;;;;;20.10;58.56;99688.54;107991;1252;24429;-86
2022/05/07 08:20:36;;;;;;;14.10;6.50;;;;;;;19.99;58.07;99688.07;108263;1252;22519;-87
2022/05/07 08:23:08;;;;;;;13.30;6.80;;;;;;;19.69;58.23;99690.89;108025;1255;22518;-87
2022/05/07 08:26:15;;;;;;;12.50;6.20;;;;;;;19.55;58.98;99689.58;108176;1252;22687;-85
2022/05/07 08:28:54;;;;;;;12.50;5.70;;;;;;;19.71;58.31;99690.23;108199;1251;22525;-86
2022/05/07 08:31:23;;;;;;;16.50;7.30;;;;;;;19.33;57.72;99694.85;108164;1255;23554;-87
2022/05/07 08:33:56;;;;;;;16.60;7.50;;;;;;;19.15;57.87;99694.36;107732;1255;25627;-86
2022/05/07 08:36:37;;;;;;;14.40;7.50;;;;;;;19.16;58.03;99695.21;108157;1254;24261;-88
2022/05/07 08:39:06;;;;;;;16.30;7.10;;;;;;;19.39;57.71;99688.42;108202;1253;22662;-86
2022/05/07 08:41:33;;;;;;;14.90;5.60;;;;;;;19.47;58.11;99687.13;107945;1252;25359;-86
2022/05/07 08:44:01;;;;;;;12.80;5.40;;;;;;;19.88;58.63;99686.64;108130;1253;22909;-84
2022/05/07 08:46:28;;;;;;;12.00;6.20;;;;;;;20.25;57.58;99683.48;107873;1255;22540;-86
2022/05/07 08:48:54;;;;;;;19.40;6.20;;;;;;;20.45;58.08;99682.13;107824;1255;22493;-87
2022/05/07 08:51:21;;;;;;;16.40;6.20;;;;;;;20.74;57.83;99683.31;108221;1252;22783;-87
2022/05/07 08:53:49;;;;;;;13.50;6.20;;;;;;;21.07;58.15;99681.25;107661;1255;22634;-87
2022/05/07 08:56:18;;;;;;;12.10;5.10;;;;;;;21.48;57.85;99677.41;108104;1254;22547;-86
2022/05/07 08:58:54;;;;;;;13.40;4.50;;;;;;;21.85;57.58;99676.77;107981;1255;22518;-88
2022/05/07 09:01:24;;;;;;;10.90;3.80;;;;;;;22.12;57.52;99673.69;108604;1252;22626;-87
2022/05/07 09:03:50;;;;;;;8.10;3.00;;;;;;;22.37;56.62;99675.83;108059;1254;24147;-87
2022/05/07 09:06:27;;;;;;;8.70;2.80;;;;;;;22.45;56.86;99676.14;108199;1252;24641;-87
2022/05/07 09:08:56;;;;;;;7.90;2.60;;;;;;;22.73;56.34;99675.58;108011;1256;24294;-86
2022/05/07 09:11:23;;;;;;;7.00;2.20;;;;;;;22.75;55.62;99673.30;108604;1255;24121;-86
2022/05/07 09:14:04;;;;;;;8.00;2.30;;;;;;;22.86;56.15;99676.42;107976;1255;22796;-85
2022/05/07 09:16:43;;;;;;;9.90;2.40;;;;;;;23.15;55.87;99674.40;107795;1252;24184;-84
2022/05/07 09:19:24;;;;;;;6.60;2.00;;;;;;;23.49;55.93;99674.25;108290;1252;22673;-87
2022/05/07 09:21:54;;;;;;;7.90;2.40;;;;;;;23.86;55.37;99671.39;107811;1252;22544;-85
2022/05/07 09:24:21;;;;;;;7.10;2.70;;;;;;;24.24;55.56;99670.73;108295;1252;25465;-84
2022/05/07 09:26:47;;;;;;;5.60;2.20;;;;;;;24.59;54.31;99667.46;108761;1252;22643;-86
2022/05/07 09:29:14;;;;;;;8.80;3.30;;;;;;;24.59;53.60;99671.97;108209;1252;24139;-86
2022/05/07 09:31:43;;;;;;;7.20;2.50;;;;;;;24.54;53.59;99668.33;107912;1254;23945;-88
2022/05/07 09:36:58;;;;;;;4.80;1.70;;;;;;;24.85;52.62;99663.46;108280;1252;22540;-86
2022/05/07 09:39:34;;;;;;;7.00;1.90;;;;;;;24.92;52.90;99661.34;108388;1252;23916;-85
2022/05/07 09:42:04;;;;;;;6.90;2.20;;;;;;;24.79;52.57;99660.05;107899;1252;24752;-84
2022/05/07 09:44:32;;;;;;;7.20;2.30;;;;;;;24.41;52.61;99659.54;107973;1255;22587;-85
2022/05/07 09:46:59;;;;;;;8.00;3.00;;;;;;;24.03;52.53;99658.23;108210;1252;22588;-87
2022/05/07 09:49:28;;;;;;;7.50;2.70;;;;;;;23.72;52.46;99659.45;107520;1252;25341;-85
2022/05/07 09:51:58;;;;;;;7.90;2.70;;;;;;;23.58;52.89;99661.45;107912;1252;22534;-86
2022/05/07 09:57:32;;;;;;;6.20;2.30;;;;;;;23.50;52.22;99663.85;108002;1252;23913;-85
2022/05/07 10:00:06;;;;;;;135.40;22.70;;;;;;;23.11;50.49;99658.54;108222;1252;25353;-87
2022/05/07 10:02:47;;;;;;;24.60;11.80;;;;;;;22.55;51.30;99651.29;108175;1252;25278;-85
2022/05/07 10:05:28;;;;;;;34.70;19.00;;;;;;;22.18;51.07;99653.83;108173;1252;22619;-85
2022/05/07 10:08:38;;;;;;;17.80;8.30;;;;;;;21.97;50.62;99653.98;107911;1252;22514;-84
2022/05/07 10:11:07;;;;;;;10.00;3.80;;;;;;;21.80;51.19;99652.30;108205;1252;25337;-84
2022/05/07 10:13:38;;;;;;;13.40;6.10;;;;;;;22.25;51.59;99645.05;107939;1252;26460;-85
2022/05/07 10:16:05;;;;;;;7.50;2.60;;;;;;;22.85;50.83;99639.14;107957;1252;22554;-83
2022/05/07 10:18:41;;;;;;;7.50;2.30;;;;;;;22.84;49.43;99642.87;107972;1252;25287;-84
2022/05/07 10:21:29;;;;;;;6.90;2.40;;;;;;;22.14;49.15;99641.87;107921;1252;22515;-85
2022/05/07 10:23:57;;;;;;;6.30;2.40;;;;;;;21.45;49.42;99645.30;108078;1252;25298;-83
2022/05/07 10:26:41;;;;;;;5.50;1.90;;;;;;;21.05;49.52;99643.77;107907;1252;24081;-84
2022/05/07 10:29:21;;;;;;;7.00;2.10;;;;;;;20.72;49.36;99643.07;108211;1252;22625;-86
2022/05/07 10:31:47;;;;;;;8.60;2.40;;;;;;;20.41;49.44;99639.80;107889;1255;22614;-85
2022/05/07 10:34:27;;;;;;;6.80;2.60;;;;;;;20.29;49.66;99639.51;108039;1252;25337;-83
2022/05/07 10:37:04;;;;;;;10.30;3.00;;;;;;;20.27;49.89;99635.15;107913;1252;22533;-85
2022/05/07 10:39:31;;;;;;;16.30;9.10;;;;;;;20.37;50.15;99633.25;107879;1252;22611;-88
2022/05/07 10:42:01;;;;;;;8.60;4.30;;;;;;;20.71;50.58;99635.05;107712;1253;24221;-85
2022/05/07 10:44:34;;;;;;;6.80;3.30;;;;;;;21.39;50.26;99630.96;108228;1252;25340;-84
2022/05/07 10:47:11;;;;;;;8.80;3.30;;;;;;;21.98;50.21;99622.14;107710;1252;24184;-85
2022/05/07 10:49:55;;;;;;;10.90;3.60;;;;;;;22.48;49.71;99620.31;108177;1252;22699;-85
2022/05/07 10:52:34;;;;;;;9.40;3.40;;;;;;;22.90;49.42;99621.37;107943;1252;22677;-86
2022/05/07 10:55:13;;;;;;;9.50;2.40;;;;;;;23.13;48.89;99618.73;107899;1252;24221;-84
2022/05/07 10:57:45;;;;;;;11.40;5.70;;;;;;;23.22;49.00;99615.31;107690;1252;22614;-85
2022/05/07 11:00:36;;;;;;;9.10;2.60;;;;;;;23.43;48.61;99611.04;108136;1252;24246;-83
2022/05/07 11:03:03;;;;;;;5.90;2.20;;;;;;;23.39;48.28;99609.63;108315;1252;24744;-82
2022/05/07 11:05:35;;;;;;;4.70;1.60;;;;;;;23.22;46.04;99611.13;107820;1254;25402;-84
2022/05/07 11:08:43;;;;;;;5.10;1.60;;;;;;;22.77;46.09;99607.16;108040;1252;24233;-87
2022/05/07 11:11:53;;;;;;;5.10;1.70;;;;;;;22.39;44.88;99604.40;108314;1255;22517;-83
2022/05/07 11:14:37;;;;;;;7.90;2.00;;;;;;;22.28;46.91;99602.75;108146;1252;25210;-86
2022/05/07 11:17:22;;;;;;;13.90;3.70;;;;;;;22.73;47.79;99604.04;107640;1252;22533;-84
2022/05/07 11:19:59;;;;;;;10.30;2.60;;;;;;;23.02;47.63;99601.45;107787;1252;24260;-90
2022/05/07 11:22:30;;;;;;;7.00;2.10;;;;;;;23.03;46.98;99598.58;108164;1252;26864;-86
2022/05/07 11:25:00;;;;;;;7.50;2.40;;;;;;;23.07;47.26;99595.42;107899;1253;22684;-87
2022/05/07 11:27:33;;;;;;;7.70;3.00;;;;;;;23.58;47.05;99593.46;107921;1255;22557;-85
2022/05/07 11:30:04;;;;;;;7.30;2.10;;;;;;;23.82;45.57;99591.13;108206;1252;22599;-84
2022/05/07 11:32:54;;;;;;;14.20;3.40;;;;;;;23.66;45.34;99588.29;108205;1252;25322;-84
2022/05/07 11:36:01;;;;;;;7.60;2.10;;;;;;;23.74;45.24;99587.89;107926;1252;23926;-85
2022/05/07 11:38:29;;;;;;;10.00;2.70;;;;;;;23.99;45.59;99592.17;108232;1252;22528;-84
2022/05/07 11:41:07;;;;;;;7.70;2.40;;;;;;;24.31;46.01;99589.79;107893;1252;22552;-84
2022/05/07 11:46:23;;;;;;;6.80;2.20;;;;;;;25.33;45.48;99585.78;107896;1252;22616;-86
2022/05/07 11:48:50;;;;;;;7.10;2.20;;;;;;;25.38;45.14;99583.13;107940;1252;22705;-85
2022/05/07 11:51:25;;;;;;;6.90;2.40;;;;;;;25.35;44.23;99581.61;107881;1255;22667;-87
2022/05/07 11:53:57;;;;;;;7.20;2.10;;;;;;;25.43;45.10;99581.44;107786;1252;22604;-86
2022/05/07 11:56:24;;;;;;;7.30;2.30;;;;;;;25.35;44.28;99583.67;107904;1252;22536;-83
2022/05/07 11:59:02;;;;;;;10.50;6.30;;;;;;;24.98;44.76;99582.44;107865;1252;26596;-87
2022/05/07 12:01:29;;;;;;;6.70;2.10;;;;;;;24.77;44.11;99584.42;108200;1252;24267;-83
2022/05/07 12:04:08;;;;;;;9.40;3.30;;;;;;;24.27;44.15;99578.59;107683;1252;22683;-83
2022/05/07 12:06:37;;;;;;;9.00;2.90;;;;;;;24.00;45.10;99577.86;108827;1252;22531;-83
2022/05/07 12:09:11;;;;;;;6.50;1.80;;;;;;;24.06;45.25;99581.77;107718;1252;25472;-84
2022/05/07 12:11:37;;;;;;;5.50;1.70;;;;;;;23.97;44.76;99575.66;107739;1255;22695;-89
2022/05/07 12:14:04;;;;;;;6.10;1.80;;;;;;;23.71;44.53;99576.83;107782;1255;25344;-83
2022/05/07 12:19:15;;;;;;;41.50;29.60;;;;;;;23.30;44.60;99578.41;107998;1252;24275;-82
2022/05/07 12:29:56;;;;;;;10.70;4.80;;;;;;;22.65;44.03;99573.79;108225;1252;22517;-83
2022/05/07 12:32:26;;;;;;;7.80;2.40;;;;;;;22.49;44.56;99573.02;107837;1253;22674;-82
2022/05/07 12:34:55;;;;;;;7.80;1.60;;;;;;;22.61;44.57;99572.73;108133;1252;22810;-82
2022/05/07 12:37:21;;;;;;;6.20;2.00;;;;;;;22.56;44.51;99572.42;107925;1253;24332;-84
2022/05/07 12:39:47;;;;;;;8.90;3.50;;;;;;;22.43;44.10;99567.52;108134;1252;25282;-82
2022/05/07 12:42:13;;;;;;;22.20;13.40;;;;;;;22.29;44.14;99567.83;108693;1252;25232;-80
2022/05/07 12:44:44;;;;;;;9.50;3.70;;;;;;;22.07;44.08;99566.28;108052;1252;26442;-83
2022/05/07 12:47:14;;;;;;;8.70;2.80;;;;;;;21.86;43.86;99567.44;108128;1254;22514;-83
2022/05/07 12:49:43;;;;;;;7.50;2.60;;;;;;;21.70;44.02;99567.58;107991;1252;23920;-82
2022/05/07 12:52:10;;;;;;;7.50;3.00;;;;;;;21.65;43.80;99565.09;108178;1252;22521;-86
2022/05/07 12:54:37;;;;;;;5.80;2.30;;;;;;;21.67;44.02;99562.79;107875;1253;25485;-82
2022/05/07 12:57:04;;;;;;;6.30;2.10;;;;;;;21.74;43.98;99561.09;108298;1254;22680;-84
2022/05/07 12:59:30;;;;;;;7.90;1.80;;;;;;;21.92;44.05;99557.30;108175;1252;22533;-85
2022/05/07 13:01:58;;;;;;;5.30;1.90;;;;;;;22.32;44.07;99556.13;107522;1252;22527;-82
2022/05/07 13:04:24;;;;;;;5.80;2.00;;;;;;;22.72;43.85;99552.45;108033;1252;22550;-83
2022/05/07 13:06:54;;;;;;;7.00;2.00;;;;;;;22.99;43.56;99550.05;108157;1252;22739;-80